Time;durP1;ratioP1;P1;durP2;ratioP2;P2;SDS_P1;SDS_P2;PMS_P1;PMS_P2;Temp;Humidity;BMP_temperature;BMP_pressure;BME280_temperature;BME280_humidity;BME280_pressure;Samples;Min_cycle;Max_cycle;Signal;HPM_P1;HPM_P2
2021/10/15 00:00:08;;;;;;;15.47;11.50;;;13.00;98.30;;;;;;3946482;30;20507;-84
2021/10/15 00:02:11;;;;;;;14.23;11.53;;;13.00;98.30;;;;;;3946186;30;20483;-83
2021/10/15 00:04:14;;;;;;;16.90;11.93;;;13.10;98.30;;;;;;3946530;30;20494;-84
2021/10/15 00:06:17;;;;;;;19.10;12.67;;;13.10;98.30;;;;;;3946289;30;21203;-84
2021/10/15 00:08:20;;;;;;;17.50;12.50;;;13.10;98.30;;;;;;3946352;30;20479;-84
2021/10/15 00:10:23;;;;;;;17.00;12.40;;;13.10;98.30;;;;;;3946304;30;20598;-83
2021/10/15 00:12:27;;;;;;;20.03;13.83;;;13.10;98.30;;;;;;3945383;30;20479;-84
2021/10/15 00:14:30;;;;;;;23.53;13.00;;;13.00;98.30;;;;;;3946536;30;20479;-84
2021/10/15 00:16:33;;;;;;;20.33;12.90;;;13.00;98.30;;;;;;3946203;30;20487;-84
2021/10/15 00:18:36;;;;;;;17.90;12.77;;;13.00;98.30;;;;;;3945912;30;20495;-84
2021/10/15 00:20:39;;;;;;;19.93;13.63;;;13.00;98.30;;;;;;3953724;30;20483;-83
2021/10/15 00:22:42;;;;;;;17.77;12.43;;;13.00;98.30;;;;;;3945717;30;20475;-83
2021/10/15 00:24:45;;;;;;;20.30;13.20;;;13.00;98.30;;;;;;3946028;30;20487;-84
2021/10/15 00:26:48;;;;;;;15.03;11.57;;;13.00;98.30;;;;;;3946256;30;20475;-84
2021/10/15 00:28:52;;;;;;;18.80;14.40;;;13.00;98.30;;;;;;3948505;30;20499;-84
2021/10/15 00:30:57;;;;;;;21.80;13.00;;;13.00;98.30;;;;;;3946155;30;20562;-85
2021/10/15 00:33:00;;;;;;;20.83;13.20;;;13.00;98.30;;;;;;3940191;30;20483;-84
2021/10/15 00:35:04;;;;;;;20.00;13.10;;;13.00;98.30;;;;;;3946198;30;20867;-84
2021/10/15 00:37:07;;;;;;;18.80;14.07;;;13.00;98.30;;;;;;3945994;30;20498;-84
2021/10/15 00:39:10;;;;;;;15.70;12.40;;;13.00;98.30;;;;;;3939190;30;20511;-83
2021/10/15 00:41:13;;;;;;;23.80;13.47;;;13.10;98.30;;;;;;3945971;30;20626;-84
2021/10/15 00:43:16;;;;;;;18.87;12.23;;;13.00;98.30;;;;;;3957499;30;20844;-84
2021/10/15 00:45:20;;;;;;;18.23;13.67;;;13.00;98.30;;;;;;3945892;30;20580;-84
2021/10/15 00:47:23;;;;;;;15.87;12.70;;;13.00;98.30;;;;;;3945908;30;20483;-84
2021/10/15 00:49:26;;;;;;;17.77;12.80;;;13.10;98.30;;;;;;3945773;30;20594;-84
2021/10/15 00:51:31;;;;;;;18.40;13.03;;;13.00;98.30;;;;;;3946400;30;20978;-84
2021/10/15 00:53:34;;;;;;;18.87;13.30;;;13.10;98.30;;;;;;3946857;30;21036;-85
2021/10/15 00:55:37;;;;;;;22.43;12.43;;;13.10;98.30;;;;;;3950978;30;20491;-83
2021/10/15 00:57:40;;;;;;;18.10;11.07;;;13.10;98.30;;;;;;3953711;30;20618;-84
2021/10/15 00:59:43;;;;;;;14.77;11.90;;;13.10;98.30;;;;;;3951296;30;20511;-84
2021/10/15 01:01:48;;;;;;;19.93;11.00;;;13.20;98.30;;;;;;3950807;30;20475;-84
2021/10/15 01:03:51;;;;;;;18.00;12.43;;;13.20;98.30;;;;;;3947027;30;20483;-84
2021/10/15 01:05:54;;;;;;;19.80;11.50;;;13.20;98.30;;;;;;3945555;30;20489;-84
2021/10/15 01:07:58;;;;;;;17.37;12.47;;;13.20;98.30;;;;;;3945592;30;20472;-84
2021/10/15 01:10:01;;;;;;;14.90;11.20;;;13.10;98.30;;;;;;3945444;30;20519;-83
2021/10/15 01:12:05;;;;;;;15.47;12.20;;;13.10;98.30;;;;;;3945611;30;20987;-84
2021/10/15 01:14:08;;;;;;;18.30;12.80;;;13.20;98.30;;;;;;3945571;30;20471;-83
2021/10/15 01:16:12;;;;;;;22.53;13.40;;;13.20;98.30;;;;;;3945761;30;20476;-84
2021/10/15 01:18:17;;;;;;;23.40;12.83;;;13.20;98.30;;;;;;3945398;30;20520;-83
2021/10/15 01:20:22;;;;;;;17.53;12.47;;;13.20;98.30;;;;;;3945653;30;20498;-84
2021/10/15 01:22:27;;;;;;;16.17;13.30;;;13.20;98.30;;;;;;3945039;30;20562;-84
2021/10/15 01:24:31;;;;;;;16.80;12.33;;;13.20;98.30;;;;;;3945977;30;20486;-84
2021/10/15 01:26:35;;;;;;;16.33;12.13;;;13.20;98.30;;;;;;3945447;30;20495;-84
2021/10/15 01:28:38;;;;;;;14.63;12.40;;;13.20;98.30;;;;;;3941147;30;21024;-83
2021/10/15 01:30:41;;;;;;;17.30;12.83;;;13.20;98.30;;;;;;3944869;30;20559;-84
2021/10/15 01:32:44;;;;;;;16.63;13.67;;;13.20;98.30;;;;;;3944968;30;20541;-84
2021/10/15 01:34:47;;;;;;;16.93;11.73;;;13.20;98.30;;;;;;3945585;30;20975;-83
2021/10/15 01:36:51;;;;;;;14.97;12.30;;;13.20;98.30;;;;;;3944960;30;20483;-84
2021/10/15 01:38:54;;;;;;;17.60;12.80;;;13.20;98.30;;;;;;3944815;30;20507;-84
2021/10/15 01:40:57;;;;;;;17.30;13.17;;;13.20;98.30;;;;;;3945143;30;20514;-84
2021/10/15 01:42:59;;;;;;;15.77;12.53;;;13.20;98.30;;;;;;3945084;30;20498;-84
2021/10/15 01:45:03;;;;;;;17.67;13.93;;;13.20;98.30;;;;;;3945105;30;20483;-85
2021/10/15 01:47:06;;;;;;;18.83;14.53;;;13.20;98.30;;;;;;3945619;30;20479;-84
2021/10/15 01:49:09;;;;;;;25.90;16.20;;;13.10;98.30;;;;;;3945753;30;20539;-84
2021/10/15 01:51:12;;;;;;;19.80;14.50;;;13.10;98.30;;;;;;3944944;30;20479;-84
2021/10/15 01:53:17;;;;;;;18.90;15.70;;;13.10;98.30;;;;;;3952491;30;20479;-85
2021/10/15 01:55:21;;;;;;;20.50;16.17;;;13.10;98.30;;;;;;3945407;30;20506;-84
2021/10/15 01:57:24;;;;;;;20.63;14.60;;;13.10;98.30;;;;;;3956932;30;20907;-84
2021/10/15 01:59:27;;;;;;;18.60;14.50;;;13.10;98.30;;;;;;3944828;30;20878;-84
2021/10/15 02:01:30;;;;;;;20.87;15.53;;;13.10;98.30;;;;;;3944479;30;20493;-84
2021/10/15 02:03:33;;;;;;;20.20;15.37;;;13.10;98.30;;;;;;3944881;30;20960;-84
2021/10/15 02:05:36;;;;;;;21.37;14.87;;;13.10;98.30;;;;;;3945051;30;20595;-84
2021/10/15 02:07:39;;;;;;;19.00;14.03;;;13.10;98.30;;;;;;3949183;30;21098;-83
2021/10/15 02:09:44;;;;;;;21.03;16.07;;;13.10;98.30;;;;;;3945614;30;20498;-84
2021/10/15 02:11:47;;;;;;;22.43;16.87;;;13.00;98.30;;;;;;3951507;30;20483;-84
2021/10/15 02:13:50;;;;;;;22.30;16.73;;;13.00;98.30;;;;;;3944699;30;20522;-84
2021/10/15 02:15:52;;;;;;;23.73;17.80;;;13.00;98.30;;;;;;3944632;30;20570;-84
2021/10/15 02:17:56;;;;;;;24.17;17.43;;;13.00;98.30;;;;;;3944626;30;20483;-84
2021/10/15 02:19:59;;;;;;;23.63;16.97;;;13.00;98.30;;;;;;3944777;30;20499;-84
2021/10/15 02:22:01;;;;;;;22.77;16.30;;;13.00;98.30;;;;;;3944488;30;20493;-84
2021/10/15 02:24:05;;;;;;;21.17;16.43;;;13.00;98.30;;;;;;3944909;30;20578;-84
2021/10/15 02:26:09;;;;;;;26.50;20.17;;;13.00;98.30;;;;;;3944817;30;20891;-84
2021/10/15 02:28:12;;;;;;;23.20;15.97;;;13.00;98.30;;;;;;3942311;30;20498;-84
2021/10/15 02:30:17;;;;;;;29.63;19.87;;;13.00;98.30;;;;;;3939123;30;20506;-84
2021/10/15 02:32:20;;;;;;;24.17;16.07;;;13.10;98.30;;;;;;3944927;30;20578;-84
2021/10/15 02:34:23;;;;;;;34.97;19.50;;;13.00;98.30;;;;;;3944965;30;20482;-83
2021/10/15 02:36:26;;;;;;;26.83;15.80;;;13.00;98.30;;;;;;3947615;30;20483;-84
2021/10/15 02:38:29;;;;;;;23.00;17.20;;;13.00;98.30;;;;;;3947675;30;20503;-84
2021/10/15 02:40:32;;;;;;;28.50;17.30;;;13.00;98.30;;;;;;3947743;30;20509;-84
2021/10/15 02:42:37;;;;;;;21.90;14.93;;;13.00;98.30;;;;;;3946003;30;20494;-84
2021/10/15 02:44:40;;;;;;;25.63;17.57;;;13.00;98.30;;;;;;3951731;30;20490;-85
2021/10/15 02:46:43;;;;;;;21.87;16.00;;;13.00;98.30;;;;;;3947609;30;20511;-86
2021/10/15 02:48:47;;;;;;;20.13;16.40;;;13.00;98.30;;;;;;3940501;30;20503;-85
2021/10/15 02:50:50;;;;;;;24.63;16.80;;;13.10;98.30;;;;;;3947786;30;20487;-84
2021/10/15 02:52:53;;;;;;;25.80;17.60;;;13.10;98.30;;;;;;3948170;30;20545;-84
2021/10/15 02:54:56;;;;;;;27.70;17.50;;;13.00;98.30;;;;;;3948113;30;20501;-84
2021/10/15 02:56:59;;;;;;;20.60;14.50;;;13.00;98.30;;;;;;3948505;30;20483;-85
2021/10/15 02:59:07;;;;;;;24.47;16.20;;;13.10;98.30;;;;;;3953528;30;20521;-85
2021/10/15 03:01:10;;;;;;;20.93;15.17;;;13.10;98.30;;;;;;3944274;30;20482;-84
2021/10/15 03:03:15;;;;;;;22.17;15.87;;;13.10;98.30;;;;;;3954128;29;20468;-84
2021/10/15 03:05:18;;;;;;;24.33;18.20;;;13.10;98.30;;;;;;3947581;30;20886;-85
2021/10/15 03:07:21;;;;;;;19.67;15.57;;;13.10;98.30;;;;;;3947528;30;20581;-84
2021/10/15 03:09:24;;;;;;;29.07;17.40;;;13.10;98.30;;;;;;3947437;30;20570;-83
2021/10/15 03:11:27;;;;;;;20.77;16.53;;;13.10;98.30;;;;;;3946759;30;20523;-83
2021/10/15 03:13:30;;;;;;;21.13;17.50;;;13.10;98.30;;;;;;3944648;30;20491;-84
2021/10/15 03:15:34;;;;;;;24.40;15.80;;;13.10;98.30;;;;;;3947288;30;20489;-84
2021/10/15 03:17:37;;;;;;;24.17;17.23;;;13.10;98.30;;;;;;3947251;30;20515;-83
2021/10/15 03:19:40;;;;;;;21.33;15.97;;;13.10;98.30;;;;;;3946525;30;20911;-84
2021/10/15 03:21:43;;;;;;;20.47;16.27;;;13.10;98.30;;;;;;3946827;30;20482;-84
2021/10/15 03:23:46;;;;;;;23.07;15.27;;;13.10;98.30;;;;;;3947231;30;20475;-85
2021/10/15 03:25:49;;;;;;;22.50;17.13;;;13.10;98.30;;;;;;3947185;30;20511;-84
2021/10/15 03:27:52;;;;;;;18.30;14.30;;;13.10;98.30;;;;;;3947110;30;20479;-84
2021/10/15 03:29:55;;;;;;;23.13;17.27;;;13.20;98.30;;;;;;3942847;30;20509;-84
2021/10/15 03:32:01;;;;;;;27.73;17.53;;;13.10;98.30;;;;;;3947124;30;20482;-84
2021/10/15 03:34:04;;;;;;;21.60;16.00;;;13.10;98.30;;;;;;3947066;30;21008;-83
2021/10/15 03:36:07;;;;;;;21.03;16.10;;;13.10;98.30;;;;;;3947222;30;20493;-84
2021/10/15 03:38:10;;;;;;;18.60;15.93;;;13.10;98.30;;;;;;3947225;30;20474;-84
2021/10/15 03:40:15;;;;;;;19.53;15.50;;;13.10;98.30;;;;;;3946673;30;20503;-84
2021/10/15 03:42:18;;;;;;;21.90;15.67;;;13.10;98.30;;;;;;3946746;30;20475;-84
2021/10/15 03:44:21;;;;;;;20.50;16.20;;;13.20;98.30;;;;;;3947248;30;20487;-84
2021/10/15 03:46:24;;;;;;;24.23;16.43;;;13.10;98.30;;;;;;3942974;30;20515;-84
2021/10/15 03:48:29;;;;;;;20.50;14.97;;;13.20;98.30;;;;;;3946755;30;20486;-84
2021/10/15 03:50:32;;;;;;;23.40;16.33;;;13.20;98.30;;;;;;3947063;30;20498;-84
2021/10/15 03:52:35;;;;;;;23.77;17.57;;;13.20;98.30;;;;;;3946613;30;20471;-84
2021/10/15 03:54:38;;;;;;;26.60;17.47;;;13.10;98.30;;;;;;3947003;30;20497;-84
2021/10/15 03:56:41;;;;;;;25.80;16.77;;;13.10;98.30;;;;;;3946566;30;20566;-84
2021/10/15 03:58:44;;;;;;;27.03;16.77;;;13.10;98.30;;;;;;3946724;30;20483;-83
2021/10/15 04:00:47;;;;;;;22.30;15.00;;;13.10;98.30;;;;;;3942126;30;20487;-83
2021/10/15 04:02:50;;;;;;;23.10;16.20;;;13.20;98.30;;;;;;3946813;30;20475;-84
2021/10/15 04:04:59;;;;;;;22.90;16.10;;;13.10;98.30;;;;;;3946347;30;20470;-84
2021/10/15 04:07:02;;;;;;;22.00;14.53;;;13.10;98.30;;;;;;3946430;30;20979;-83
2021/10/15 04:09:05;;;;;;;22.87;16.07;;;13.10;98.30;;;;;;3952305;30;20583;-83
2021/10/15 04:11:08;;;;;;;21.00;15.47;;;13.10;98.30;;;;;;3946527;30;20475;-84
2021/10/15 04:13:11;;;;;;;20.67;16.60;;;13.10;98.30;;;;;;3946682;30;20523;-84
2021/10/15 04:15:14;;;;;;;22.40;14.63;;;13.10;98.30;;;;;;3946595;30;20566;-84
2021/10/15 04:17:17;;;;;;;21.60;15.57;;;13.10;98.30;;;;;;3946666;30;20487;-83
2021/10/15 04:19:20;;;;;;;22.30;15.87;;;13.10;98.30;;;;;;3950391;30;20494;-85
2021/10/15 04:21:25;;;;;;;21.47;14.43;;;13.10;98.30;;;;;;3949892;30;20570;-83
2021/10/15 04:23:28;;;;;;;21.53;14.63;;;13.10;98.30;;;;;;3946259;30;20479;-84
2021/10/15 04:25:31;;;;;;;17.80;14.07;;;13.10;98.30;;;;;;3946716;30;20479;-84
2021/10/15 04:27:34;;;;;;;21.10;16.00;;;13.10;98.30;;;;;;3945484;30;20899;-84
2021/10/15 04:29:37;;;;;;;19.13;13.77;;;13.10;98.30;;;;;;3946441;30;20859;-84
2021/10/15 04:31:40;;;;;;;20.73;15.30;;;13.10;98.30;;;;;;3946583;30;20475;-83
2021/10/15 04:33:43;;;;;;;17.63;12.47;;;13.10;98.30;;;;;;3946216;30;20493;-83
2021/10/15 04:35:46;;;;;;;21.83;14.20;;;13.10;98.30;;;;;;3960435;30;20484;-83
2021/10/15 04:37:50;;;;;;;18.87;14.70;;;13.20;98.30;;;;;;3951511;29;20493;-83
2021/10/15 04:39:53;;;;;;;19.40;15.67;;;13.20;98.30;;;;;;3946153;30;20506;-82
2021/10/15 04:41:56;;;;;;;22.50;14.90;;;13.10;98.30;;;;;;3946087;30;20526;-83
2021/10/15 04:43:59;;;;;;;15.93;13.47;;;13.20;98.30;;;;;;3953209;30;20487;-83
2021/10/15 04:46:02;;;;;;;18.53;15.10;;;13.10;98.30;;;;;;3951970;30;20582;-83
2021/10/15 04:48:05;;;;;;;17.73;13.87;;;13.10;98.30;;;;;;3945953;30;20505;-83
2021/10/15 04:50:09;;;;;;;16.70;13.97;;;13.10;98.30;;;;;;3944435;30;21109;-83
2021/10/15 04:52:12;;;;;;;19.60;13.47;;;13.10;98.30;;;;;;3945902;30;20514;-83
2021/10/15 04:54:17;;;;;;;18.20;14.60;;;13.10;98.30;;;;;;3946141;30;20483;-83
2021/10/15 04:56:20;;;;;;;29.87;13.40;;;13.20;98.30;;;;;;3946651;30;20972;-84
2021/10/15 04:58:23;;;;;;;18.33;14.00;;;13.20;98.30;;;;;;3943848;30;20554;-84
2021/10/15 05:00:26;;;;;;;20.40;13.63;;;13.10;98.30;;;;;;3946919;30;21177;-82
2021/10/15 05:02:29;;;;;;;21.07;14.60;;;13.20;98.30;;;;;;3949801;30;20483;-84
2021/10/15 05:04:32;;;;;;;20.30;14.53;;;13.10;98.30;;;;;;3946017;30;20491;-83
2021/10/15 05:06:35;;;;;;;16.83;12.70;;;13.10;98.30;;;;;;3946229;30;20481;-84
2021/10/15 05:08:44;;;;;;;21.67;15.80;;;13.00;98.30;;;;;;3946291;30;20829;-84
2021/10/15 05:10:49;;;;;;;21.30;16.17;;;12.90;98.30;;;;;;3940446;30;20929;-84
2021/10/15 05:12:53;;;;;;;19.77;14.30;;;12.80;98.30;;;;;;3946674;30;20479;-84
2021/10/15 05:14:56;;;;;;;24.07;16.13;;;12.80;98.30;;;;;;3952775;30;21031;-83
2021/10/15 05:16:59;;;;;;;26.60;17.73;;;12.70;98.30;;;;;;3944923;30;20489;-84
2021/10/15 05:19:03;;;;;;;23.60;17.27;;;12.70;98.30;;;;;;3944411;30;20956;-83
2021/10/15 05:21:06;;;;;;;26.53;19.53;;;12.70;98.30;;;;;;3963647;30;20499;-83
2021/10/15 05:23:09;;;;;;;21.63;17.73;;;12.70;98.30;;;;;;3959693;30;20583;-83
2021/10/15 05:25:14;;;;;;;25.07;19.07;;;12.70;98.30;;;;;;3961135;30;20491;-82
2021/10/15 05:27:18;;;;;;;29.00;19.60;;;12.70;98.30;;;;;;3968791;30;20487;-84
2021/10/15 05:29:21;;;;;;;26.33;19.57;;;12.70;98.30;;;;;;3947019;30;20573;-84
2021/10/15 05:31:24;;;;;;;24.60;18.20;;;12.70;98.30;;;;;;3945962;30;20486;-84
2021/10/15 05:33:27;;;;;;;25.97;19.17;;;12.70;98.30;;;;;;3946587;30;20519;-84
2021/10/15 05:35:30;;;;;;;24.77;19.10;;;12.70;98.30;;;;;;3946723;30;20949;-83
2021/10/15 05:37:34;;;;;;;23.63;17.23;;;12.70;98.30;;;;;;3947415;30;20550;-84
2021/10/15 05:39:37;;;;;;;28.97;18.93;;;12.80;98.30;;;;;;3948447;30;20594;-83
2021/10/15 05:41:43;;;;;;;21.97;17.47;;;12.70;98.30;;;;;;3949142;30;20514;-83
2021/10/15 05:43:48;;;;;;;23.07;19.10;;;12.80;98.30;;;;;;3961167;30;20472;-83
2021/10/15 05:45:51;;;;;;;25.93;19.87;;;12.80;98.30;;;;;;3962872;30;20479;-83
2021/10/15 05:47:54;;;;;;;26.90;19.57;;;12.70;98.30;;;;;;3963725;30;20471;-83
2021/10/15 05:49:58;;;;;;;26.70;19.20;;;12.70;98.30;;;;;;3969159;29;20482;-84
2021/10/15 05:52:06;;;;;;;25.63;18.73;;;12.70;98.30;;;;;;3964276;30;20505;-84
2021/10/15 05:54:13;;;;;;;27.47;20.07;;;12.70;98.30;;;;;;3950794;30;20586;-84
2021/10/15 05:56:41;;;;;;;27.53;19.63;;;12.70;98.30;;;;;;3945496;30;20478;-84
2021/10/15 05:58:49;;;;;;;26.10;19.73;;;12.70;98.30;;;;;;3945204;30;20479;-84
2021/10/15 06:00:54;;;;;;;24.97;19.23;;;12.60;98.30;;;;;;3945184;30;20521;-84
2021/10/15 06:02:57;;;;;;;27.40;21.00;;;12.60;98.30;;;;;;3944924;30;20505;-83
2021/10/15 06:14:42;;;;;;;31.47;22.03;;;12.30;98.30;;;;;;3899560;30;20545;-84
2021/10/15 06:16:49;;;;;;;34.70;24.27;;;12.30;98.30;;;;;;3941590;30;20479;-84
2021/10/15 06:18:56;;;;;;;28.27;19.80;;;12.30;98.30;;;;;;3946031;30;20530;-84
2021/10/15 06:20:59;;;;;;;29.67;21.03;;;12.30;98.30;;;;;;3956414;30;20483;-84
2021/10/15 06:23:02;;;;;;;33.57;23.43;;;12.20;98.30;;;;;;3944940;30;20487;-83
2021/10/15 06:25:06;;;;;;;30.13;22.03;;;12.20;98.30;;;;;;3945442;30;20990;-83
2021/10/15 06:27:09;;;;;;;32.30;22.33;;;12.20;98.30;;;;;;3945223;30;20563;-84
2021/10/15 06:29:12;;;;;;;28.77;20.07;;;12.10;98.30;;;;;;3945763;29;21298;-84
2021/10/15 06:31:15;;;;;;;38.23;26.37;;;12.10;98.30;;;;;;3945479;30;20485;-84
2021/10/15 06:33:20;;;;;;;40.40;24.43;;;12.10;98.30;;;;;;3945068;30;20533;-84
2021/10/15 06:35:23;;;;;;;35.50;24.37;;;12.10;98.30;;;;;;3945118;30;20487;-84
2021/10/15 06:37:26;;;;;;;39.47;28.47;;;12.10;98.30;;;;;;3952267;30;20529;-85
2021/10/15 06:39:29;;;;;;;46.73;32.07;;;12.10;98.30;;;;;;3944966;30;20594;-84
2021/10/15 06:41:32;;;;;;;67.10;42.83;;;12.20;98.30;;;;;;3944660;30;20499;-83
2021/10/15 06:43:35;;;;;;;40.40;27.63;;;12.20;98.30;;;;;;3944893;30;20489;-84
2021/10/15 06:45:39;;;;;;;31.77;20.83;;;12.30;98.30;;;;;;3945031;30;21009;-84
2021/10/15 06:47:42;;;;;;;23.07;16.13;;;12.30;98.30;;;;;;3944768;30;20479;-84
2021/10/15 06:49:46;;;;;;;21.20;15.60;;;12.30;98.30;;;;;;3944913;30;21008;-84
2021/10/15 06:51:49;;;;;;;33.63;22.30;;;12.30;98.30;;;;;;3937651;30;20471;-84
2021/10/15 06:53:52;;;;;;;15.40;12.87;;;12.30;98.30;;;;;;3945002;30;21348;-83
2021/10/15 06:55:55;;;;;;;22.70;15.70;;;12.20;98.30;;;;;;3944891;30;20487;-84
2021/10/15 06:57:58;;;;;;;11.53;7.83;;;12.20;98.30;;;;;;3944738;30;20487;-83
2021/10/15 07:00:01;;;;;;;14.50;8.43;;;12.20;98.30;;;;;;3945103;30;21033;-84
2021/10/15 07:02:07;;;;;;;7.90;5.30;;;12.20;98.30;;;;;;3944168;29;20499;-84
2021/10/15 07:04:11;;;;;;;6.60;4.50;;;12.00;98.30;;;;;;3944723;30;20487;-84
2021/10/15 07:06:15;;;;;;;14.00;8.70;;;12.00;98.30;;;;;;3944766;30;20497;-84
2021/10/15 07:08:18;;;;;;;11.07;7.60;;;12.00;98.30;;;;;;3944835;30;20512;-84
2021/10/15 07:10:21;;;;;;;14.03;8.80;;;12.00;98.30;;;;;;3944585;30;20593;-84
2021/10/15 07:12:24;;;;;;;12.30;6.73;;;11.90;98.30;;;;;;3944225;30;20532;-83
2021/10/15 07:14:27;;;;;;;8.00;4.03;;;11.90;98.30;;;;;;3944444;30;20479;-83
2021/10/15 07:16:31;;;;;;;3.07;2.57;;;11.90;98.30;;;;;;3944805;30;20975;-84
2021/10/15 07:18:34;;;;;;;3.83;2.80;;;11.90;98.30;;;;;;3945521;30;20972;-84
2021/10/15 07:20:37;;;;;;;3.70;2.13;;;11.90;98.30;;;;;;3946114;30;20510;-84
2021/10/15 07:22:44;;;;;;;4.03;2.53;;;11.80;98.30;;;;;;3947561;30;20503;-83
2021/10/15 07:24:47;;;;;;;4.50;2.40;;;11.80;98.30;;;;;;3941520;30;20483;-84
2021/10/15 07:26:50;;;;;;;3.93;2.40;;;11.80;98.30;;;;;;3953122;30;20504;-83
2021/10/15 07:28:53;;;;;;;3.20;1.93;;;11.80;98.30;;;;;;3948590;30;20538;-83
2021/10/15 07:30:58;;;;;;;3.57;2.10;;;11.80;98.30;;;;;;3947935;30;20861;-84
2021/10/15 07:33:01;;;;;;;4.03;2.90;;;11.70;98.30;;;;;;3955065;30;20470;-84
2021/10/15 07:35:06;;;;;;;5.80;3.03;;;11.70;98.30;;;;;;3955141;30;20478;-84
2021/10/15 07:37:10;;;;;;;14.43;7.60;;;11.70;98.30;;;;;;3954147;30;20537;-84
2021/10/15 07:39:14;;;;;;;7.20;3.03;;;11.70;98.30;;;;;;3947328;30;20517;-84
2021/10/15 07:41:18;;;;;;;3.10;2.47;;;11.70;98.30;;;;;;3947688;30;20487;-84
2021/10/15 07:43:21;;;;;;;5.00;3.03;;;11.60;98.30;;;;;;3947126;30;20514;-83
2021/10/15 07:45:26;;;;;;;3.60;2.60;;;11.60;98.30;;;;;;3947446;30;20483;-84
2021/10/15 07:47:37;;;;;;;3.00;2.23;;;11.60;98.30;;;;;;3948890;30;20510;-84
2021/10/15 07:49:40;;;;;;;3.60;2.10;;;11.60;98.30;;;;;;3950473;30;20594;-84
2021/10/15 07:51:43;;;;;;;4.70;2.33;;;11.60;98.30;;;;;;3949742;30;20519;-84
2021/10/15 07:53:46;;;;;;;3.50;2.17;;;11.50;98.30;;;;;;3940485;30;20515;-83
2021/10/15 07:55:50;;;;;;;4.30;2.07;;;11.50;98.30;;;;;;3947067;30;20498;-83
2021/10/15 07:57:53;;;;;;;4.17;2.63;;;11.50;98.30;;;;;;3947459;30;21035;-84
2021/10/15 07:59:56;;;;;;;2.33;2.13;;;11.50;98.30;;;;;;3947469;30;20509;-84
2021/10/15 08:02:00;;;;;;;3.13;1.90;;;11.50;98.30;;;;;;3946631;30;20525;-84
2021/10/15 08:04:04;;;;;;;2.43;2.20;;;11.40;98.30;;;;;;3947683;30;20493;-84
2021/10/15 08:06:23;;;;;;;2.53;1.70;;;11.50;98.30;;;;;;3947514;30;20502;-84
2021/10/15 08:08:26;;;;;;;3.43;2.23;;;11.60;98.30;;;;;;3946918;30;20521;-84
2021/10/15 08:10:29;;;;;;;5.90;2.53;;;11.50;98.30;;;;;;3947022;30;20498;-83
2021/10/15 08:12:35;;;;;;;4.23;2.47;;;11.60;98.30;;;;;;3946771;30;20489;-83
2021/10/15 08:14:37;;;;;;;4.63;2.77;;;11.50;98.30;;;;;;3947059;30;21067;-84
2021/10/15 08:16:41;;;;;;;5.73;2.90;;;11.50;98.30;;;;;;3947020;30;20498;-84
2021/10/15 08:18:48;;;;;;;4.00;2.67;;;11.50;98.30;;;;;;3939797;30;20610;-83
2021/10/15 08:20:55;;;;;;;4.50;2.50;;;11.50;98.30;;;;;;3946982;30;20984;-84
2021/10/15 08:22:58;;;;;;;5.30;2.13;;;11.40;98.30;;;;;;3946503;30;20503;-84
2021/10/15 08:25:01;;;;;;;3.30;2.10;;;11.30;98.30;;;;;;3946984;30;20984;-83
2021/10/15 08:27:05;;;;;;;3.33;2.23;;;11.30;98.30;;;;;;3946759;30;20847;-84
2021/10/15 08:29:09;;;;;;;4.20;2.73;;;11.30;98.30;;;;;;3946562;30;20772;-84
2021/10/15 08:31:13;;;;;;;4.40;2.67;;;11.30;98.30;;;;;;3946607;30;20550;-84
2021/10/15 08:33:16;;;;;;;5.80;2.60;;;11.30;98.30;;;;;;3952593;30;20459;-83
2021/10/15 08:35:21;;;;;;;3.40;2.50;;;11.30;98.30;;;;;;3951288;30;20573;-84
2021/10/15 08:37:24;;;;;;;5.60;3.17;;;11.30;98.30;;;;;;3956838;30;20582;-83
2021/10/15 08:39:28;;;;;;;5.70;2.70;;;11.30;98.30;;;;;;3946961;30;20502;-84
2021/10/15 08:41:31;;;;;;;3.20;2.43;;;11.30;98.30;;;;;;3946253;30;20586;-84
2021/10/15 08:43:36;;;;;;;4.17;2.47;;;11.30;98.30;;;;;;3947178;30;20511;-83
2021/10/15 08:45:41;;;;;;;7.30;2.70;;;11.40;98.30;;;;;;3947092;30;20487;-83
2021/10/15 08:47:44;;;;;;;3.00;2.40;;;11.50;98.30;;;;;;3955182;30;20498;-84
2021/10/15 08:50:08;;;;;;;5.57;2.60;;;11.50;98.30;;;;;;3946089;30;21019;-84
2021/10/15 08:52:12;;;;;;;5.27;2.67;;;11.40;98.30;;;;;;3946240;30;20548;-84
2021/10/15 08:54:15;;;;;;;5.83;2.60;;;11.30;98.30;;;;;;3946429;30;20492;-84
2021/10/15 08:56:18;;;;;;;2.90;2.50;;;11.30;98.30;;;;;;3946652;30;20513;-84
2021/10/15 08:58:21;;;;;;;7.20;2.90;;;11.10;98.30;;;;;;3946357;30;20487;-84
2021/10/15 09:00:27;;;;;;;7.23;2.73;;;11.00;98.30;;;;;;3946126;30;20589;-84
2021/10/15 09:02:32;;;;;;;8.20;3.13;;;11.00;98.30;;;;;;3946157;30;20549;-83
2021/10/15 09:04:44;;;;;;;5.10;3.97;;;11.10;98.30;;;;;;3946284;30;21024;-84
2021/10/15 09:06:49;;;;;;;8.90;4.60;;;11.20;98.30;;;;;;3938694;30;20519;-83
2021/10/15 09:08:54;;;;;;;10.57;5.43;;;11.30;98.30;;;;;;3945923;30;20574;-84
2021/10/15 09:10:59;;;;;;;27.40;16.13;;;11.30;98.30;;;;;;3945976;30;20488;-84
2021/10/15 09:13:10;;;;;;;19.87;12.10;;;11.50;98.30;;;;;;3945827;30;20920;-84
2021/10/15 09:15:14;;;;;;;14.40;8.60;;;11.70;98.30;;;;;;3945992;30;20490;-84
2021/10/15 09:17:25;;;;;;;7.23;3.90;;;11.70;98.30;;;;;;3945990;30;20913;-84
2021/10/15 09:19:33;;;;;;;7.23;4.13;;;11.70;98.30;;;;;;3946070;30;20506;-84
2021/10/15 09:21:38;;;;;;;5.53;2.93;;;11.70;98.30;;;;;;3945583;30;20483;-83
2021/10/15 09:23:47;;;;;;;3.70;2.90;;;11.70;98.30;;;;;;3945915;30;20499;-84
2021/10/15 09:25:50;;;;;;;3.70;2.90;;;11.80;98.30;;;;;;3939080;30;20577;-84
2021/10/15 09:27:56;;;;;;;7.93;2.83;;;11.80;98.30;;;;;;3953772;30;20830;-84
2021/10/15 09:30:02;;;;;;;8.90;3.40;;;12.00;98.30;;;;;;3951564;30;20509;-84
2021/10/15 09:32:11;;;;;;;7.30;3.10;;;12.10;98.30;;;;;;3949596;30;20489;-84
2021/10/15 09:34:14;;;;;;;12.13;3.03;;;12.10;98.30;;;;;;3948454;30;20485;-84
2021/10/15 09:36:20;;;;;;;9.53;3.63;;;12.10;98.30;;;;;;3948778;30;20582;-84
2021/10/15 09:38:27;;;;;;;7.50;3.83;;;12.10;98.30;;;;;;3945543;30;20497;-84
2021/10/15 09:40:33;;;;;;;4.70;2.90;;;12.10;98.30;;;;;;3945199;30;20487;-84
2021/10/15 09:42:37;;;;;;;5.77;2.90;;;12.20;98.30;;;;;;3944954;30;20477;-83
2021/10/15 09:44:40;;;;;;;7.73;2.43;;;12.20;98.30;;;;;;3945295;30;20487;-84
2021/10/15 09:46:43;;;;;;;5.20;2.50;;;12.10;98.30;;;;;;3945311;30;20525;-84
2021/10/15 09:48:52;;;;;;;4.83;2.20;;;12.00;98.30;;;;;;3945276;30;20894;-83
2021/10/15 09:51:16;;;;;;;6.90;2.93;;;11.90;98.30;;;;;;3945312;30;20486;-84
2021/10/15 09:53:20;;;;;;;6.53;3.10;;;11.80;98.30;;;;;;3945548;30;20984;-84
2021/10/15 09:55:28;;;;;;;10.60;3.10;;;12.00;98.30;;;;;;3945214;30;20526;-84
2021/10/15 09:57:33;;;;;;;5.70;3.33;;;12.30;98.30;;;;;;3945260;30;20478;-83
2021/10/15 09:59:42;;;;;;;7.50;3.30;;;12.40;98.30;;;;;;3945308;30;20529;-84
2021/10/15 10:01:46;;;;;;;7.30;2.60;;;12.50;98.30;;;;;;3945015;30;20491;-84
2021/10/15 10:03:49;;;;;;;12.07;5.03;;;12.50;98.30;;;;;;3938456;30;21012;-84
2021/10/15 10:05:52;;;;;;;6.83;3.10;;;12.70;98.30;;;;;;3945213;30;20515;-84
2021/10/15 10:08:00;;;;;;;5.70;3.50;;;13.00;98.30;;;;;;3945247;30;21320;-84
2021/10/15 10:10:08;;;;;;;11.60;3.47;;;13.50;98.30;;;;;;3947488;30;20512;-84
2021/10/15 10:12:12;;;;;;;8.43;3.67;;;13.90;98.30;;;;;;3949390;30;20913;-84
2021/10/15 10:14:18;;;;;;;4.50;2.83;;;14.30;98.30;;;;;;3944811;30;20505;-84
2021/10/15 10:16:23;;;;;;;7.93;3.10;;;14.50;98.30;;;;;;3945399;30;20549;-84
2021/10/15 10:18:30;;;;;;;9.60;4.17;;;14.90;98.30;;;;;;3945000;30;20964;-85
2021/10/15 10:20:33;;;;;;;11.00;3.67;;;15.20;98.30;;;;;;3945112;30;20479;-84
2021/10/15 10:22:39;;;;;;;9.90;3.63;;;15.50;98.30;;;;;;3958113;30;20482;-85
2021/10/15 10:24:57;;;;;;;8.50;3.37;;;15.70;98.30;;;;;;3938436;30;20499;-84
2021/10/15 10:27:01;;;;;;;7.27;2.97;;;16.10;98.30;;;;;;3945195;30;20566;-84
2021/10/15 10:29:06;;;;;;;9.67;3.50;;;16.20;98.30;;;;;;3945016;30;20584;-85
2021/10/15 10:31:23;;;;;;;8.83;3.30;;;16.40;98.30;;;;;;3944785;30;20479;-85
2021/10/15 10:33:26;;;;;;;7.50;3.37;;;16.80;98.30;;;;;;3949632;30;20513;-84
2021/10/15 10:35:31;;;;;;;6.60;3.20;;;17.30;98.30;;;;;;3954610;30;20836;-85
2021/10/15 10:37:34;;;;;;;10.20;3.87;;;17.60;98.30;;;;;;3944689;30;20505;-85
2021/10/15 10:39:38;;;;;;;10.30;3.80;;;17.90;98.30;;;;;;3944956;30;20507;-85
2021/10/15 10:42:04;;;;;;;5.90;3.47;;;18.40;98.30;;;;;;3944902;30;20497;-85
2021/10/15 10:44:14;;;;;;;9.37;3.30;;;18.50;98.30;;;;;;3940092;30;20487;-84